createdAt,value
2023-03-12T00:01:22.945Z,-1.71
2023-03-12T00:03:54.360Z,-1.72
2023-03-12T00:06:22.605Z,-1.73
2023-03-12T00:09:02.209Z,-1.73
2023-03-12T00:11:32.120Z,-1.73
2023-03-12T00:14:01.036Z,-1.74
2023-03-12T00:16:31.795Z,-1.74
2023-03-12T00:19:08.231Z,-1.74
2023-03-12T00:21:55.657Z,-1.72
2023-03-12T00:24:25.885Z,-1.70
2023-03-12T00:26:55.829Z,-1.68
2023-03-12T00:29:23.340Z,-1.67
2023-03-12T00:31:51.846Z,-1.66
2023-03-12T00:34:19.204Z,-1.67
2023-03-12T00:36:46.490Z,-1.67
2023-03-12T00:39:13.785Z,-1.69
2023-03-12T00:41:41.097Z,-1.69
2023-03-12T00:44:08.565Z,-1.69
2023-03-12T00:46:35.744Z,-1.70
2023-03-12T00:49:02.956Z,-1.70
2023-03-12T00:51:50.449Z,-1.69
2023-03-12T00:54:17.743Z,-1.70
2023-03-12T00:56:46.850Z,-1.70
2023-03-12T00:59:14.096Z,-1.71
2023-03-12T01:01:42.432Z,-1.71
2023-03-12T01:04:30.573Z,-1.71
2023-03-12T01:07:18.209Z,-1.70
2023-03-12T01:09:45.317Z,-1.69
2023-03-12T01:12:12.677Z,-1.66
2023-03-12T01:15:00.278Z,-1.64
2023-03-12T01:17:27.680Z,-1.63
2023-03-12T01:19:57.324Z,-1.62
2023-03-12T01:22:45.395Z,-1.60
2023-03-12T01:25:24.084Z,-1.58
2023-03-12T01:27:54.217Z,-1.57
2023-03-12T01:30:25.032Z,-1.55
2023-03-12T01:32:55.726Z,-1.54
2023-03-12T01:35:26.911Z,-1.53
2023-03-12T01:37:56.088Z,-1.51
2023-03-12T01:40:29.139Z,-1.49
2023-03-12T01:42:58.797Z,-1.46
2023-03-12T01:46:00.224Z,-1.43
2023-03-12T01:48:29.190Z,-1.39
2023-03-12T01:51:19.110Z,-1.36
2023-03-12T01:53:52.386Z,-1.32
2023-03-12T01:56:33.563Z,-1.29
2023-03-12T01:59:24.571Z,-1.25
2023-03-12T02:02:03.365Z,-1.21
2023-03-12T02:04:32.486Z,-1.16
2023-03-12T02:07:05.292Z,-1.14
2023-03-12T02:09:37.665Z,-1.10
2023-03-12T02:12:06.101Z,-1.05
2023-03-12T02:14:53.729Z,-1.01
2023-03-12T02:17:42.256Z,-0.99
2023-03-12T02:20:18.428Z,-0.97
2023-03-12T02:23:07.176Z,-0.98
2023-03-12T02:25:40.993Z,-0.99
2023-03-12T02:28:31.050Z,-0.99
2023-03-12T02:31:23.306Z,-1.01
2023-03-12T02:33:56.050Z,-1.00
2023-03-12T02:36:43.617Z,-1.00
2023-03-12T02:39:31.468Z,-0.99
2023-03-12T02:42:10.283Z,-0.98
2023-03-12T02:44:47.650Z,-0.96
2023-03-12T02:47:22.617Z,-0.97
2023-03-12T02:50:00.362Z,-1.00
2023-03-12T02:52:38.457Z,-1.01
2023-03-12T02:55:11.200Z,-1.01
2023-03-12T02:57:58.719Z,-1.02
2023-03-12T03:00:46.364Z,-1.03
2023-03-12T03:03:26.660Z,-1.04
2023-03-12T03:05:54.233Z,-1.04
2023-03-12T03:08:42.315Z,-1.04
2023-03-12T03:11:12.950Z,-1.01
2023-03-12T03:13:53.940Z,-0.99
2023-03-12T03:16:31.646Z,-0.97
2023-03-12T03:18:59.580Z,-0.95
2023-03-12T03:21:46.991Z,-0.92
2023-03-12T03:24:27.444Z,-0.88
2023-03-12T03:27:15.187Z,-0.87
2023-03-12T03:29:46.600Z,-0.85
2023-03-12T03:32:22.794Z,-0.82
2023-03-12T03:34:52.867Z,-0.79
2023-03-12T03:37:40.422Z,-0.77
2023-03-12T03:40:12.487Z,-0.76
2023-03-12T03:42:58.694Z,-0.77
2023-03-12T03:45:37.138Z,-0.76
2023-03-12T03:48:24.792Z,-0.76
2023-03-12T03:51:06.057Z,-0.77
2023-03-12T03:53:53.665Z,-0.77
2023-03-12T03:56:41.421Z,-0.78
2023-03-12T03:59:28.958Z,-0.77
2023-03-12T04:02:16.488Z,-0.75
2023-03-12T04:05:04.321Z,-0.74
2023-03-12T04:07:32.260Z,-0.72
2023-03-12T04:09:59.645Z,-0.72
2023-03-12T04:12:47.258Z,-0.71
2023-03-12T04:15:34.614Z,-0.70
2023-03-12T04:18:22.555Z,-0.68
2023-03-12T04:21:12.455Z,-0.66
2023-03-12T04:23:49.991Z,-0.64
2023-03-12T04:26:37.291Z,-0.63
2023-03-12T04:29:24.974Z,-0.61
2023-03-12T04:31:55.687Z,-0.61
2023-03-12T04:34:26.421Z,-0.59
2023-03-12T04:37:15.066Z,-0.58
2023-03-12T04:40:06.306Z,-0.56
2023-03-12T04:42:53.720Z,-0.55
2023-03-12T04:45:31.519Z,-0.51
2023-03-12T04:48:18.870Z,-0.49
2023-03-12T04:51:07.028Z,-0.48
2023-03-12T04:53:54.404Z,-0.45
2023-03-12T04:56:24.925Z,-0.44
2023-03-12T04:58:55.061Z,-0.42
2023-03-12T05:01:43.007Z,-0.40
2023-03-12T05:04:25.562Z,-0.40
2023-03-12T05:07:13.673Z,-0.38
2023-03-12T05:09:53.832Z,-0.36
2023-03-12T05:12:41.367Z,-0.35
2023-03-12T05:15:12.407Z,-0.33
2023-03-12T05:18:00.286Z,-0.33
2023-03-12T05:20:47.872Z,-0.34
2023-03-12T05:23:36.356Z,-0.34
2023-03-12T05:26:03.738Z,-0.32
2023-03-12T05:28:50.661Z,-0.30
2023-03-12T05:31:38.056Z,-0.29
2023-03-12T05:34:25.788Z,-0.27
2023-03-12T05:37:13.254Z,-0.26
2023-03-12T05:40:00.992Z,-0.23
2023-03-12T05:42:47.396Z,-0.21
2023-03-12T05:45:19.992Z,-0.21
2023-03-12T05:48:07.745Z,-0.21
2023-03-12T05:50:53.139Z,-0.20
2023-03-12T05:53:40.634Z,-0.20
2023-03-12T05:56:20.865Z,-0.18
2023-03-12T05:58:50.880Z,-0.16
2023-03-12T06:01:29.658Z,-0.15
2023-03-12T06:03:59.333Z,-0.13
2023-03-12T06:06:27.375Z,-0.11
2023-03-12T06:08:57.144Z,-0.12
2023-03-12T06:11:44.546Z,-0.12
2023-03-12T06:14:32.046Z,-0.10
2023-03-12T06:17:07.286Z,-0.08
2023-03-12T06:19:55.209Z,-0.07
2023-03-12T06:22:42.731Z,-0.05
2023-03-12T06:25:30.135Z,-0.01
2023-03-12T06:28:19.075Z,0.07
2023-03-12T06:31:08.081Z,0.26
2023-03-12T06:33:38.702Z,0.50
2023-03-12T06:36:10.746Z,0.70
2023-03-12T06:38:43.533Z,0.76
2023-03-12T06:41:15.860Z,0.80
2023-03-12T06:44:06.275Z,0.77
2023-03-12T06:46:53.974Z,0.72
2023-03-12T06:49:41.773Z,0.66
2023-03-12T06:52:29.665Z,0.62
2023-03-12T06:55:17.091Z,0.60
2023-03-12T06:58:04.431Z,0.62
2023-03-12T07:00:51.884Z,0.60
2023-03-12T07:03:39.415Z,0.57
2023-03-12T07:06:27.095Z,0.59
2023-03-12T07:09:01.976Z,0.68
2023-03-12T07:11:39.431Z,0.73
2023-03-12T07:14:14.353Z,1.37
2023-03-12T07:17:02.550Z,2.58
2023-03-12T07:19:49.956Z,2.60
2023-03-12T07:22:37.426Z,2.38
2023-03-12T07:25:19.198Z,2.16
2023-03-12T07:28:07.950Z,2.57
2023-03-12T07:30:38.008Z,3.84
2023-03-12T07:33:06.500Z,5.98
2023-03-12T07:35:34.133Z,7.99
2023-03-12T07:38:04.667Z,9.07
2023-03-12T07:40:32.748Z,9.56
2023-03-12T07:43:00.534Z,9.63
2023-03-12T07:45:32.343Z,10.18
2023-03-12T07:47:59.817Z,10.89
2023-03-12T07:50:29.606Z,10.31
2023-03-12T07:52:57.153Z,9.60
2023-03-12T07:55:24.646Z,10.26
2023-03-12T07:57:52.207Z,10.63
2023-03-12T08:00:20.487Z,9.89
2023-03-12T08:02:48.000Z,10.01
2023-03-12T08:05:15.422Z,9.96
2023-03-12T08:07:42.655Z,9.63
2023-03-12T08:10:28.644Z,9.04
2023-03-12T08:12:59.049Z,8.32
2023-03-12T08:15:26.609Z,8.70
2023-03-12T08:17:56.906Z,9.00
2023-03-12T08:20:34.316Z,8.55
2023-03-12T08:23:04.550Z,7.85
2023-03-12T08:25:42.171Z,7.29
2023-03-12T08:28:11.847Z,7.42
2023-03-12T08:30:39.345Z,7.29
2023-03-12T08:33:16.692Z,6.81
2023-03-12T08:35:47.254Z,6.23
2023-03-12T08:38:18.001Z,6.39
2023-03-12T08:40:45.757Z,6.62
2023-03-12T08:43:12.957Z,6.45
2023-03-12T08:45:40.615Z,6.15
2023-03-12T08:48:29.031Z,5.62
2023-03-12T08:51:06.191Z,5.27
2023-03-12T08:53:41.797Z,5.68
2023-03-12T08:56:10.339Z,7.08
2023-03-12T08:58:37.456Z,7.68
2023-03-12T09:01:09.213Z,8.00
2023-03-12T09:03:47.695Z,8.03
2023-03-12T09:06:17.052Z,7.87
2023-03-12T09:08:44.849Z,7.53
2023-03-12T09:11:13.773Z,8.00
2023-03-12T09:14:03.948Z,8.54
2023-03-12T09:16:29.671Z,8.73
2023-03-12T09:18:57.292Z,8.22
2023-03-12T09:21:24.568Z,7.51
2023-03-12T09:23:52.135Z,6.92
2023-03-12T09:26:19.557Z,6.48
2023-03-12T09:28:46.782Z,6.55
2023-03-12T09:31:19.880Z,6.61
2023-03-12T09:33:47.376Z,6.70
2023-03-12T09:36:33.253Z,6.74
2023-03-12T09:39:01.067Z,7.10
2023-03-12T09:41:31.231Z,7.36
2023-03-12T09:44:03.708Z,7.69
2023-03-12T09:46:38.397Z,7.83
2023-03-12T09:49:13.103Z,7.76
2023-03-12T09:51:45.270Z,7.59
2023-03-12T09:54:26.309Z,7.31
2023-03-12T09:57:12.400Z,6.98
2023-03-12T09:59:48.912Z,6.70
2023-03-12T10:03:07.050Z,6.37
2023-03-12T10:05:44.348Z,5.85
2023-03-12T10:08:29.830Z,5.40
2023-03-12T10:11:29.836Z,4.97
2023-03-12T10:14:18.035Z,4.59
2023-03-12T10:17:00.675Z,4.23
2023-03-12T10:19:50.189Z,4.05
2023-03-12T10:22:32.630Z,3.90
2023-03-12T10:25:17.774Z,3.75
2023-03-12T10:27:48.864Z,3.63
2023-03-12T10:30:23.493Z,3.49
2023-03-12T10:33:04.393Z,3.41
2023-03-12T10:35:54.034Z,3.48
2023-03-12T10:38:40.645Z,3.57
2023-03-12T10:41:24.400Z,3.60
2023-03-12T10:44:07.400Z,3.58
2023-03-12T10:46:47.898Z,3.51
2023-03-12T10:49:38.167Z,3.41
2023-03-12T10:52:25.961Z,3.30
2023-03-12T10:54:56.862Z,3.22
2023-03-12T10:57:44.871Z,3.32
2023-03-12T11:00:34.088Z,3.45
2023-03-12T11:03:24.634Z,3.51
2023-03-12T11:06:04.712Z,3.54
2023-03-12T11:08:43.577Z,3.90
2023-03-12T11:11:36.694Z,4.12
2023-03-12T11:14:25.878Z,4.09
2023-03-12T11:17:24.670Z,4.14
2023-03-12T11:20:01.106Z,4.22
2023-03-12T11:22:35.026Z,4.18
2023-03-12T11:25:04.352Z,4.36
2023-03-12T11:27:54.862Z,4.89
2023-03-12T11:30:30.925Z,5.02
2023-03-12T11:33:02.466Z,5.00
2023-03-12T11:35:42.578Z,5.11
2023-03-12T11:38:18.446Z,5.50
2023-03-12T11:41:10.999Z,5.85
2023-03-12T11:43:53.940Z,5.80
2023-03-12T11:46:37.544Z,5.69
2023-03-12T11:49:19.376Z,5.50
2023-03-12T11:51:56.091Z,5.44
2023-03-12T11:54:32.363Z,5.31
2023-03-12T11:57:03.967Z,5.17
2023-03-12T11:59:55.435Z,5.20
2023-03-12T12:02:41.890Z,5.04
2023-03-12T12:05:41.306Z,4.88
2023-03-12T12:08:33.390Z,4.93
2023-03-12T12:11:16.639Z,4.77
2023-03-12T12:14:13.683Z,4.70
2023-03-12T12:17:03.284Z,4.63
2023-03-12T12:20:10.298Z,4.52
2023-03-12T12:23:10.671Z,4.37
2023-03-12T12:26:18.567Z,4.33
2023-03-12T12:29:26.930Z,4.31
2023-03-12T12:31:59.626Z,4.36
2023-03-12T12:34:54.835Z,4.54
2023-03-12T12:37:38.255Z,4.99
2023-03-12T12:40:23.787Z,5.33
2023-03-12T12:43:38.133Z,5.49
2023-03-12T12:46:09.295Z,5.57
2023-03-12T12:48:41.291Z,5.62
2023-03-12T12:51:21.003Z,5.60
2023-03-12T12:53:55.678Z,5.46
2023-03-12T12:56:32.457Z,5.36
2023-03-12T12:59:23.362Z,5.33
2023-03-12T13:01:53.156Z,5.25
2023-03-12T13:04:42.678Z,5.16
2023-03-12T13:07:35.204Z,5.04
2023-03-12T13:10:53.321Z,5.01
2023-03-12T13:13:27.499Z,5.12
2023-03-12T13:16:34.992Z,5.20
2023-03-12T13:19:06.907Z,5.21
2023-03-12T13:21:41.635Z,5.12
2023-03-12T13:24:20.604Z,5.04
2023-03-12T13:27:06.110Z,4.97
2023-03-12T13:29:41.859Z,5.01
2023-03-12T13:32:32.502Z,5.13
2023-03-12T13:35:00.851Z,5.31
2023-03-12T13:37:59.383Z,5.38
2023-03-12T13:41:01.110Z,5.36
2023-03-12T13:43:52.081Z,5.29
2023-03-12T13:46:43.418Z,5.21
2023-03-12T13:49:23.353Z,5.29
2023-03-12T13:52:00.712Z,5.47
2023-03-12T13:54:35.277Z,5.68
2023-03-12T13:57:12.367Z,5.80
2023-03-12T13:59:49.326Z,5.87
